Flight Track Log - Related Links

Times and Time Zones

All times are in EST time to prevent confusion due to time zone crossing. See the N830QS flight status page for this flight to view local times or setup timezone preferences in your user account.

Time Position Orientation Groundspeed Altitude Reporting Facility
EST Latitude Longitude Course Direction KTS MPH feet Rate Location/Type
Mon 10:09:51 AM 32.8167 -97.3500 180° South 182 209 1,500  Level Dallas / Fort Worth TRACON
Mon 10:10:15 AM 32.7833 -97.3500 180° South 210 242 2,600 1,750 Climbing Dallas / Fort Worth TRACON
Mon 10:11:03 AM 32.7419 -97.3361 164° South 223 257 3,600 2,202 Climbing Fort Worth Center
Mon 10:12:04 AM 32.6825 -97.3200 167° South 219 252 6,600 3,171 Climbing Fort Worth Center
Mon 10:13:06 AM 32.6258 -97.2611 139° Southeast 289 333 10,100 3,484 Climbing Fort Worth Center
Mon 10:14:08 AM 32.6367 -97.1464 84° East 339 390 13,800 3,023 Climbing Fort Worth Center
Mon 10:15:15 AM 32.6500 -97.0167 83° East 384 442 16,600 1,512 Climbing Dallas / Fort Worth TRACON
Mon 10:16:15 AM 32.6833 -96.8833 73° East 405 466 17,000 862 Climbing Dallas / Fort Worth TRACON
Mon 10:18:16 AM 32.7219 -96.6203 80° East 400 460 19,200 1,377 Climbing Fort Worth Center
Mon 10:19:18 AM 32.7419 -96.4856 80° East 417 480 21,200 1,935 Climbing Fort Worth Center
Mon 10:20:20 AM 32.7628 -96.3489 80° East 423 487 23,200 1,355 Climbing Fort Worth Center
Mon 10:21:22 AM 32.7833 -96.2158 80° East 434 499 24,000 387 Climbing Fort Worth Center
Mon 10:22:24 AM 32.7856 -96.0628 89° East 466 536 24,000 195 Level Fort Worth Center
Mon 10:23:25 AM 32.7864 -95.8800 90° East 464 534 24,400 1,024 Climbing Fort Worth Center
Mon 10:24:27 AM 32.7875 -95.7306 89° East 455 524 26,100 1,403 Climbing Fort Worth Center
Mon 10:25:29 AM 32.7861 -95.5775 91° East 461 531 27,300 1,258 Climbing Fort Worth Center
Mon 10:26:31 AM 32.7858 -95.4222 90° East 470 541 28,700 1,355 Climbing Fort Worth Center
Mon 10:27:33 AM 32.7856 -95.2536 90° East 476 548 30,100 1,306 Climbing Fort Worth Center
Mon 10:28:35 AM 32.7844 -95.0947 90° East 481 554 31,400 1,258 Climbing Fort Worth Center
Mon 10:29:37 AM 32.7836 -94.9364 90° East 481 554 32,700 774 Climbing Fort Worth Center
Mon 10:30:39 AM 32.7833 -94.7753 90° East 488 562 33,000 145 Climbing Fort Worth Center
Mon 10:31:41 AM 32.7808 -94.5736 91° East 511 588 33,000  Level Fort Worth Center
Mon 10:32:43 AM 32.7786 -94.4072 91° East 508 585 33,000  Level Fort Worth Center
Mon 10:33:45 AM 32.7764 -94.2425 91° East 503 579 33,000  Level Fort Worth Center
Mon 10:34:47 AM 32.7742 -94.0772 91° East 504 580 33,000  Level Fort Worth Center
Mon 10:35:49 AM 32.7725 -93.9119 91° East 505 581 33,000  Level Fort Worth Center
Mon 10:36:51 AM 32.7628 -93.7131 93° East 507 583 33,000  Level Fort Worth Center
Mon 10:37:53 AM 32.7508 -93.5481 95° East 507 583 33,000  Level Fort Worth Center
Mon 10:38:55 AM 32.7375 -93.3814 95° East 510 587 33,000  Level Fort Worth Center
Mon 10:39:57 AM 32.7242 -93.2164 95° East 507 583 33,000  Level Fort Worth Center
Mon 10:40:59 AM 32.7103 -93.0494 96° East 509 586 33,000  Level Fort Worth Center
Mon 10:42:01 AM 32.6931 -92.8508 96° East 508 585 33,000  Level Fort Worth Center
Mon 10:43:03 AM 32.6817 -92.6833 95° East 510 587 33,000  Level Fort Worth Center
Mon 10:44:05 AM 32.6675 -92.5181 96° East 508 585 33,000  Level Fort Worth Center
Mon 10:45:07 AM 32.6525 -92.3608 96° East 506 582 33,000  Level Fort Worth Center
Mon 10:46:09 AM 32.6356 -92.1617 96° East 505 581 33,000  Level Fort Worth Center
Mon 10:47:11 AM 32.6208 -91.9961 96° East 503 579 33,000 -823 Level Fort Worth Center
Mon 10:48:13 AM 32.6061 -91.8339 96° East 495 570 31,300 -2,129 Descending Fort Worth Center
Mon 10:49:15 AM 32.5911 -91.6814 97° East 471 542 28,600 -2,752 Descending Fort Worth Center
Mon 10:50:02 AM 32.5781 -91.5586 97° East 463 533 26,300 -2,752 Descending Memphis Center
Mon 10:51:04 AM 32.5644 -91.4111 96° East 457 526 23,600 -2,613 Descending Memphis Center
Mon 10:52:06 AM 32.5522 -91.2706 96° East 439 505 20,900 -2,613 Descending Memphis Center
Mon 10:53:08 AM 32.5400 -91.1378 96° East 416 479 18,200 -2,537 Descending Memphis Center
Mon 10:54:09 AM 32.5258 -91.0081 97° East 404 465 15,700 -2,780 Descending Memphis Center
Mon 10:55:11 AM 32.5114 -90.8608 97° East 390 449 12,500 -2,177 Descending Memphis Center
Mon 10:56:13 AM 32.4997 -90.7447 97° East 375 432 11,200 -629 Descending Memphis Center
Mon 10:57:15 AM 32.4886 -90.6308 97° East 363 418 11,200 -532 Level Memphis Center
Mon 10:58:17 AM 32.4731 -90.5303 100° East 336 387 10,100 -1,548 Descending Memphis Center
Mon 10:59:19 AM 32.4597 -90.4369 100° East 306 352 8,000 -2,274 Descending Memphis Center
Mon 11:00:21 AM 32.4433 -90.3278 100° East 291 335 5,400 -2,226 Descending Memphis Center
Mon 11:01:23 AM 32.4294 -90.2400 101° East 283 326 3,400 -1,403 Descending Memphis Center
Mon 11:02:25 AM 32.4172 -90.1625 101° East 266 306 2,500 -774 Descending Memphis Center
Mon 11:03:27 AM 32.3917 -90.1086 119° Southeast 221 254 1,800 -677 Descending Memphis Center
Mon 11:04:29 AM 32.3578 -90.0914 157° South 168 193 1,100 -581 Descending Memphis Center
Mon 11:05:31 AM 32.3208 -90.0758 160° South 147 169 600 -484 Descending Memphis Center
Mon 11:07:00 AM 32.3112 -90.0759 168° South  Level Estimated

Login

Don't have an account? Register now (free) for customized features, flight alerts, and more!